sensor_id;sensor_type;location;lat;lon;timestamp;pressure;altitude;pressure_sealevel;temperature;humidity
45285;BME280;31026;43.780;25.948;2023-09-19T00:01:08;101263.16;;;24.44;50.96
45285;BME280;31026;43.780;25.948;2023-09-19T00:03:37;101249.09;;;24.40;51.12
45285;BME280;31026;43.780;25.948;2023-09-19T00:06:07;101249.47;;;24.45;51.01
45285;BME280;31026;43.780;25.948;2023-09-19T00:08:38;101240.84;;;24.41;51.17
45285;BME280;31026;43.780;25.948;2023-09-19T00:11:09;101254.19;;;24.43;51.17
45285;BME280;31026;43.780;25.948;2023-09-19T00:13:40;101244.06;;;24.45;51.00
45285;BME280;31026;43.780;25.948;2023-09-19T00:16:08;101238.44;;;24.38;51.05
45285;BME280;31026;43.780;25.948;2023-09-19T00:18:37;101252.81;;;24.39;51.06
45285;BME280;31026;43.780;25.948;2023-09-19T00:21:06;101242.53;;;24.42;50.72
45285;BME280;31026;43.780;25.948;2023-09-19T00:23:35;101224.44;;;24.43;50.70
45285;BME280;31026;43.780;25.948;2023-09-19T00:26:03;101218.53;;;24.39;50.91
45285;BME280;31026;43.780;25.948;2023-09-19T00:28:32;101219.38;;;24.40;50.88
45285;BME280;31026;43.780;25.948;2023-09-19T00:31:03;101243.06;;;24.46;50.74
45285;BME280;31026;43.780;25.948;2023-09-19T00:33:33;101219.03;;;24.43;50.67
45285;BME280;31026;43.780;25.948;2023-09-19T00:36:02;101229.69;;;24.45;51.10
45285;BME280;31026;43.780;25.948;2023-09-19T00:38:30;101235.09;;;24.45;50.86
45285;BME280;31026;43.780;25.948;2023-09-19T00:40:59;101248.78;;;24.43;50.84
45285;BME280;31026;43.780;25.948;2023-09-19T00:43:28;101241.00;;;24.40;50.80
45285;BME280;31026;43.780;25.948;2023-09-19T00:45:59;101238.28;;;24.40;51.00
45285;BME280;31026;43.780;25.948;2023-09-19T00:48:31;101216.97;;;24.37;50.66
45285;BME280;31026;43.780;25.948;2023-09-19T00:51:02;101232.25;;;24.46;50.64
45285;BME280;31026;43.780;25.948;2023-09-19T00:53:31;101231.38;;;24.37;50.75
45285;BME280;31026;43.780;25.948;2023-09-19T00:56:00;101238.66;;;24.45;50.88
45285;BME280;31026;43.780;25.948;2023-09-19T00:58:30;101246.56;;;24.38;51.02
45285;BME280;31026;43.780;25.948;2023-09-19T01:01:00;101238.59;;;24.37;50.80
45285;BME280;31026;43.780;25.948;2023-09-19T01:03:34;101243.69;;;24.40;50.69
45285;BME280;31026;43.780;25.948;2023-09-19T01:06:03;101234.22;;;24.36;50.43
45285;BME280;31026;43.780;25.948;2023-09-19T01:08:32;101235.44;;;24.41;50.71
45285;BME280;31026;43.780;25.948;2023-09-19T01:11:04;101228.47;;;24.39;51.13
45285;BME280;31026;43.780;25.948;2023-09-19T01:13:40;101225.09;;;24.37;50.82
45285;BME280;31026;43.780;25.948;2023-09-19T01:16:16;101229.66;;;24.36;50.89
45285;BME280;31026;43.780;25.948;2023-09-19T01:19:01;101228.63;;;24.29;50.81
45285;BME280;31026;43.780;25.948;2023-09-19T01:21:33;101221.34;;;24.30;50.75
45285;BME280;31026;43.780;25.948;2023-09-19T01:24:09;101205.81;;;24.32;50.39
45285;BME280;31026;43.780;25.948;2023-09-19T01:26:49;101196.19;;;24.29;50.71
45285;BME280;31026;43.780;25.948;2023-09-19T01:29:28;101195.13;;;24.22;50.33
45285;BME280;31026;43.780;25.948;2023-09-19T01:32:08;101212.56;;;24.28;50.77
45285;BME280;31026;43.780;25.948;2023-09-19T01:34:45;101206.81;;;24.31;50.48
45285;BME280;31026;43.780;25.948;2023-09-19T01:37:16;101212.84;;;24.25;50.76
45285;BME280;31026;43.780;25.948;2023-09-19T01:39:46;101211.00;;;24.25;50.72
45285;BME280;31026;43.780;25.948;2023-09-19T01:42:19;101198.34;;;24.26;50.58
45285;BME280;31026;43.780;25.948;2023-09-19T01:44:51;101187.84;;;24.22;50.38
45285;BME280;31026;43.780;25.948;2023-09-19T01:47:26;101191.22;;;24.25;50.43
45285;BME280;31026;43.780;25.948;2023-09-19T01:49:57;101199.34;;;24.25;50.38
45285;BME280;31026;43.780;25.948;2023-09-19T01:52:30;101209.31;;;24.24;50.52
45285;BME280;31026;43.780;25.948;2023-09-19T01:55:02;101197.47;;;24.25;50.46
45285;BME280;31026;43.780;25.948;2023-09-19T01:57:34;101189.56;;;24.24;50.29
45285;BME280;31026;43.780;25.948;2023-09-19T02:00:04;101191.22;;;24.25;50.21
45285;BME280;31026;43.780;25.948;2023-09-19T02:02:37;101192.25;;;24.24;50.39
45285;BME280;31026;43.780;25.948;2023-09-19T02:05:06;101190.00;;;24.19;50.55
45285;BME280;31026;43.780;25.948;2023-09-19T02:07:34;101110.88;;;23.74;50.30
45285;BME280;31026;43.780;25.948;2023-09-19T02:10:03;101188.53;;;24.25;50.28
45285;BME280;31026;43.780;25.948;2023-09-19T02:12:32;101189.88;;;24.20;50.25
45285;BME280;31026;43.780;25.948;2023-09-19T02:15:00;101199.69;;;24.21;50.18
45285;BME280;31026;43.780;25.948;2023-09-19T02:17:32;101180.91;;;24.20;50.23
45285;BME280;31026;43.780;25.948;2023-09-19T02:20:03;101183.78;;;24.18;50.04
45285;BME280;31026;43.780;25.948;2023-09-19T02:22:36;101199.97;;;24.18;50.32
45285;BME280;31026;43.780;25.948;2023-09-19T02:25:05;101198.59;;;24.14;50.25
45285;BME280;31026;43.780;25.948;2023-09-19T02:27:33;101199.00;;;24.19;50.39
45285;BME280;31026;43.780;25.948;2023-09-19T02:30:02;101182.78;;;24.19;50.33
45285;BME280;31026;43.780;25.948;2023-09-19T02:32:31;101184.78;;;24.17;50.35
45285;BME280;31026;43.780;25.948;2023-09-19T02:35:07;101181.91;;;24.19;50.16
45285;BME280;31026;43.780;25.948;2023-09-19T02:37:36;101174.28;;;24.14;50.25
45285;BME280;31026;43.780;25.948;2023-09-19T02:40:05;101188.63;;;24.15;50.22
45285;BME280;31026;43.780;25.948;2023-09-19T02:42:43;101174.97;;;24.16;49.82
45285;BME280;31026;43.780;25.948;2023-09-19T02:45:14;101180.38;;;24.16;49.96
45285;BME280;31026;43.780;25.948;2023-09-19T02:47:42;101185.47;;;24.19;49.79
45285;BME280;31026;43.780;25.948;2023-09-19T02:50:14;101191.53;;;24.13;50.03
45285;BME280;31026;43.780;25.948;2023-09-19T02:52:43;101195.22;;;24.12;50.10
45285;BME280;31026;43.780;25.948;2023-09-19T02:55:13;101184.09;;;24.15;49.91
45285;BME280;31026;43.780;25.948;2023-09-19T02:57:45;101192.91;;;24.17;49.94
45285;BME280;31026;43.780;25.948;2023-09-19T03:00:14;101204.69;;;24.16;49.75
45285;BME280;31026;43.780;25.948;2023-09-19T03:02:46;101193.19;;;24.14;49.83
45285;BME280;31026;43.780;25.948;2023-09-19T03:05:18;101192.38;;;24.14;49.88
45285;BME280;31026;43.780;25.948;2023-09-19T03:07:46;101189.66;;;24.14;49.77
45285;BME280;31026;43.780;25.948;2023-09-19T03:10:15;101194.03;;;24.15;49.86
45285;BME280;31026;43.780;25.948;2023-09-19T03:12:44;101198.06;;;24.11;49.88
45285;BME280;31026;43.780;25.948;2023-09-19T03:15:12;101185.88;;;24.07;49.84
45285;BME280;31026;43.780;25.948;2023-09-19T03:17:42;101201.94;;;24.08;49.60
45285;BME280;31026;43.780;25.948;2023-09-19T03:20:11;101197.91;;;24.12;49.88
45285;BME280;31026;43.780;25.948;2023-09-19T03:22:45;101204.16;;;24.13;49.86
45285;BME280;31026;43.780;25.948;2023-09-19T03:25:13;101193.50;;;24.11;49.82
45285;BME280;31026;43.780;25.948;2023-09-19T03:27:42;101207.41;;;24.16;49.83
45285;BME280;31026;43.780;25.948;2023-09-19T03:30:11;101199.78;;;24.12;49.70
45285;BME280;31026;43.780;25.948;2023-09-19T03:32:43;101199.97;;;24.18;49.63
45285;BME280;31026;43.780;25.948;2023-09-19T03:35:12;101196.75;;;24.15;49.58
45285;BME280;31026;43.780;25.948;2023-09-19T03:37:41;101201.94;;;24.08;49.72
45285;BME280;31026;43.780;25.948;2023-09-19T03:40:12;101207.41;;;24.16;49.33
45285;BME280;31026;43.780;25.948;2023-09-19T03:42:41;101204.00;;;24.14;49.64
45285;BME280;31026;43.780;25.948;2023-09-19T03:45:10;101206.50;;;24.08;49.48
45285;BME280;31026;43.780;25.948;2023-09-19T03:47:41;101211.97;;;24.16;49.42
45285;BME280;31026;43.780;25.948;2023-09-19T03:50:09;101192.56;;;24.20;49.22
45285;BME280;31026;43.780;25.948;2023-09-19T03:52:40;101194.09;;;24.23;48.95
45285;BME280;31026;43.780;25.948;2023-09-19T03:55:09;101212.22;;;24.31;49.03
45285;BME280;31026;43.780;25.948;2023-09-19T03:57:39;101192.94;;;24.26;49.37
45285;BME280;31026;43.780;25.948;2023-09-19T04:00:08;101211.88;;;24.26;48.92
45285;BME280;31026;43.780;25.948;2023-09-19T04:02:38;101201.94;;;24.08;49.60
45285;BME280;31026;43.780;25.948;2023-09-19T04:05:06;101188.06;;;24.03;49.38
45285;BME280;31026;43.780;25.948;2023-09-19T04:07:35;101197.03;;;24.04;49.47
45285;BME280;31026;43.780;25.948;2023-09-19T04:10:04;101186.44;;;24.10;49.80
45285;BME280;31026;43.780;25.948;2023-09-19T04:12:37;101200.94;;;24.09;49.83
45285;BME280;31026;43.780;25.948;2023-09-19T04:15:08;101193.84;;;24.08;49.74
45285;BME280;31026;43.780;25.948;2023-09-19T04:17:38;101204.66;;;24.08;49.44
45285;BME280;31026;43.780;25.948;2023-09-19T04:20:07;101199.25;;;24.08;49.57
45285;BME280;31026;43.780;25.948;2023-09-19T04:22:37;101209.81;;;24.19;49.29
45285;BME280;31026;43.780;25.948;2023-09-19T04:25:06;101213.66;;;24.17;49.10
45285;BME280;31026;43.780;25.948;2023-09-19T04:27:35;101202.09;;;24.07;49.89
45285;BME280;31026;43.780;25.948;2023-09-19T04:30:04;101200.66;;;23.76;47.78
45285;BME280;31026;43.780;25.948;2023-09-19T04:32:38;101209.41;;;23.88;47.13
45285;BME280;31026;43.780;25.948;2023-09-19T04:35:07;101201.31;;;23.70;47.35
45285;BME280;31026;43.780;25.948;2023-09-19T04:37:37;101212.94;;;23.53;45.31
45285;BME280;31026;43.780;25.948;2023-09-19T04:40:07;101210.72;;;23.30;47.49
45285;BME280;31026;43.780;25.948;2023-09-19T04:42:38;101207.47;;;22.99;46.59
45285;BME280;31026;43.780;25.948;2023-09-19T04:45:07;101205.84;;;22.88;46.28
45285;BME280;31026;43.780;25.948;2023-09-19T04:47:38;101215.81;;;22.78;46.37
45285;BME280;31026;43.780;25.948;2023-09-19T04:50:09;101199.34;;;22.81;45.96
45285;BME280;31026;43.780;25.948;2023-09-19T04:52:42;101202.28;;;22.88;44.97
45285;BME280;31026;43.780;25.948;2023-09-19T04:55:10;101208.41;;;22.80;45.69
45285;BME280;31026;43.780;25.948;2023-09-19T04:57:42;101213.19;;;22.68;45.63
45285;BME280;31026;43.780;25.948;2023-09-19T05:00:11;101215.38;;;22.55;46.01
45285;BME280;31026;43.780;25.948;2023-09-19T05:02:43;101193.09;;;21.18;47.08
45285;BME280;31026;43.780;25.948;2023-09-19T05:05:11;101205.38;;;20.60;48.24
45285;BME280;31026;43.780;25.948;2023-09-19T05:07:44;101188.47;;;20.70;48.90
45285;BME280;31026;43.780;25.948;2023-09-19T05:10:13;101187.03;;;21.64;47.97
45285;BME280;31026;43.780;25.948;2023-09-19T05:12:43;101184.81;;;22.36;46.63
45285;BME280;31026;43.780;25.948;2023-09-19T05:15:13;101172.94;;;22.84;45.81
45285;BME280;31026;43.780;25.948;2023-09-19T05:17:45;101172.38;;;23.09;45.85
45285;BME280;31026;43.780;25.948;2023-09-19T05:20:15;101189.41;;;23.27;45.74
45285;BME280;31026;43.780;25.948;2023-09-19T05:22:49;101174.78;;;23.48;45.61
45285;BME280;31026;43.780;25.948;2023-09-19T05:25:18;101172.16;;;23.56;45.78
45285;BME280;31026;43.780;25.948;2023-09-19T05:27:47;101179.16;;;23.67;46.27
45285;BME280;31026;43.780;25.948;2023-09-19T05:30:16;101173.13;;;23.73;46.68
45285;BME280;31026;43.780;25.948;2023-09-19T05:32:48;101170.97;;;23.76;46.43
45285;BME280;31026;43.780;25.948;2023-09-19T05:35:16;101182.69;;;23.85;46.48
45285;BME280;31026;43.780;25.948;2023-09-19T05:37:46;101186.00;;;23.97;46.47
45285;BME280;31026;43.780;25.948;2023-09-19T05:40:16;101178.97;;;24.04;46.58
45285;BME280;31026;43.780;25.948;2023-09-19T05:42:44;101180.63;;;24.05;46.85
45285;BME280;31026;43.780;25.948;2023-09-19T05:45:13;101170.53;;;24.07;46.93
45285;BME280;31026;43.780;25.948;2023-09-19T05:47:44;101167.81;;;24.07;47.28
45285;BME280;31026;43.780;25.948;2023-09-19T05:50:15;101163.63;;;24.13;47.29
45285;BME280;31026;43.780;25.948;2023-09-19T05:52:43;101177.00;;;24.14;47.56
45285;BME280;31026;43.780;25.948;2023-09-19T05:55:12;101180.38;;;24.16;48.25
45285;BME280;31026;43.780;25.948;2023-09-19T05:57:40;101171.59;;;24.14;48.14
45285;BME280;31026;43.780;25.948;2023-09-19T06:00:09;101166.13;;;24.06;48.56
45285;BME280;31026;43.780;25.948;2023-09-19T06:02:39;101158.88;;;24.07;48.45
45285;BME280;31026;43.780;25.948;2023-09-19T06:05:09;101154.00;;;24.10;48.90
45285;BME280;31026;43.780;25.948;2023-09-19T06:07:40;101149.97;;;24.14;48.68
45285;BME280;31026;43.780;25.948;2023-09-19T06:10:09;101162.94;;;24.11;48.98
45285;BME280;31026;43.780;25.948;2023-09-19T06:12:37;101147.06;;;24.08;49.22
45285;BME280;31026;43.780;25.948;2023-09-19T06:15:06;101161.63;;;24.15;48.99
45285;BME280;31026;43.780;25.948;2023-09-19T06:17:38;101153.69;;;24.13;49.38
45285;BME280;31026;43.780;25.948;2023-09-19T06:20:07;101152.81;;;24.13;49.39
45285;BME280;31026;43.780;25.948;2023-09-19T06:22:42;101145.41;;;24.15;49.59
45285;BME280;31026;43.780;25.948;2023-09-19T06:25:11;101155.22;;;24.16;49.55
45285;BME280;31026;43.780;25.948;2023-09-19T06:27:44;101150.34;;;24.19;49.70
45285;BME280;31026;43.780;25.948;2023-09-19T06:30:12;101156.75;;;24.18;49.79
45285;BME280;31026;43.780;25.948;2023-09-19T06:32:42;101167.41;;;24.20;49.81
45285;BME280;31026;43.780;25.948;2023-09-19T06:35:11;101151.03;;;24.21;49.88
45285;BME280;31026;43.780;25.948;2023-09-19T06:37:43;101155.06;;;24.17;50.10
45285;BME280;31026;43.780;25.948;2023-09-19T06:40:11;101167.03;;;24.15;49.85
45285;BME280;31026;43.780;25.948;2023-09-19T06:42:41;101157.94;;;24.16;50.12
45285;BME280;31026;43.780;25.948;2023-09-19T06:45:09;101157.25;;;24.14;50.36
45285;BME280;31026;43.780;25.948;2023-09-19T06:47:43;101143.69;;;24.06;50.43
45285;BME280;31026;43.780;25.948;2023-09-19T06:50:14;101152.28;;;24.09;50.67
45285;BME280;31026;43.780;25.948;2023-09-19T06:52:46;101158.03;;;24.06;50.83
45285;BME280;31026;43.780;25.948;2023-09-19T06:55:16;101148.22;;;24.05;50.77
45285;BME280;31026;43.780;25.948;2023-09-19T06:57:45;101141.97;;;24.05;50.95
45285;BME280;31026;43.780;25.948;2023-09-19T07:00:14;101144.38;;;24.08;50.78
45285;BME280;31026;43.780;25.948;2023-09-19T07:02:43;101148.22;;;24.05;50.86
45285;BME280;31026;43.780;25.948;2023-09-19T07:05:12;101137.09;;;24.08;51.02
45285;BME280;31026;43.780;25.948;2023-09-19T07:07:40;101140.81;;;24.07;51.17
45285;BME280;31026;43.780;25.948;2023-09-19T07:10:13;101149.44;;;24.11;51.06
45285;BME280;31026;43.780;25.948;2023-09-19T07:12:41;101138.78;;;24.09;51.33
45285;BME280;31026;43.780;25.948;2023-09-19T07:15:09;101152.28;;;24.09;51.22
45285;BME280;31026;43.780;25.948;2023-09-19T07:17:38;101137.09;;;24.08;51.26
45285;BME280;31026;43.780;25.948;2023-09-19T07:20:07;101139.81;;;24.08;51.34
45285;BME280;31026;43.780;25.948;2023-09-19T07:22:36;101131.56;;;24.10;51.47
45285;BME280;31026;43.780;25.948;2023-09-19T07:25:05;101129.84;;;24.09;51.55
45285;BME280;31026;43.780;25.948;2023-09-19T07:27:36;101125.28;;;24.09;51.61
45285;BME280;31026;43.780;25.948;2023-09-19T07:30:05;101107.38;;;24.08;51.45
45285;BME280;31026;43.780;25.948;2023-09-19T07:32:33;101120.56;;;24.11;51.64
45285;BME280;31026;43.780;25.948;2023-09-19T07:35:02;101126.81;;;24.12;51.58
45285;BME280;31026;43.780;25.948;2023-09-19T07:37:31;101110.78;;;24.10;51.82
45285;BME280;31026;43.780;25.948;2023-09-19T07:39:59;101104.53;;;24.10;51.76
45285;BME280;31026;43.780;25.948;2023-09-19T07:42:32;101097.94;;;24.12;51.55
45285;BME280;31026;43.780;25.948;2023-09-19T07:45:03;101098.09;;;24.11;51.75
45285;BME280;31026;43.780;25.948;2023-09-19T07:47:31;101096.25;;;24.11;51.75
45285;BME280;31026;43.780;25.948;2023-09-19T13:48:03;100837.06;;;24.59;49.21
45285;BME280;31026;43.780;25.948;2023-09-19T13:50:34;100844.84;;;24.62;49.10
45285;BME280;31026;43.780;25.948;2023-09-19T13:53:07;100834.88;;;24.63;48.54
45285;BME280;31026;43.780;25.948;2023-09-19T13:55:35;100834.38;;;24.67;48.33
45285;BME280;31026;43.780;25.948;2023-09-19T13:58:03;100821.88;;;24.58;48.36
45285;BME280;31026;43.780;25.948;2023-09-19T14:00:32;100826.91;;;24.61;48.13
45285;BME280;31026;43.780;25.948;2023-09-19T14:03:06;100831.50;;;24.60;48.49
45285;BME280;31026;43.780;25.948;2023-09-19T14:05:35;100836.91;;;24.60;47.02
45285;BME280;31026;43.780;25.948;2023-09-19T14:08:03;100836.91;;;24.60;47.08
45285;BME280;31026;43.780;25.948;2023-09-19T14:10:32;100832.31;;;24.61;47.22
45285;BME280;31026;43.780;25.948;2023-09-19T14:13:00;100820.16;;;24.57;47.27
45285;BME280;31026;43.780;25.948;2023-09-19T14:15:28;100808.19;;;24.59;46.80
45285;BME280;31026;43.780;25.948;2023-09-19T14:18:02;100814.94;;;24.64;47.32
45285;BME280;31026;43.780;25.948;2023-09-19T14:20:33;100822.38;;;24.61;46.93
45285;BME280;31026;43.780;25.948;2023-09-19T14:23:05;100817.28;;;24.58;46.87
45285;BME280;31026;43.780;25.948;2023-09-19T14:25:34;100805.28;;;24.61;46.94
45285;BME280;31026;43.780;25.948;2023-09-19T14:28:04;100804.28;;;24.62;47.65
45285;BME280;31026;43.780;25.948;2023-09-19T14:30:33;100814.09;;;24.63;48.04
45285;BME280;31026;43.780;25.948;2023-09-19T14:33:02;100821.34;;;24.54;47.51
45285;BME280;31026;43.780;25.948;2023-09-19T14:35:33;100840.44;;;24.61;47.53
45285;BME280;31026;43.780;25.948;2023-09-19T14:38:05;100823.22;;;24.54;46.88
45285;BME280;31026;43.780;25.948;2023-09-19T14:40:33;100812.56;;;24.52;46.89
45285;BME280;31026;43.780;25.948;2023-09-19T14:43:02;100819.84;;;24.52;46.35
45285;BME280;31026;43.780;25.948;2023-09-19T14:45:35;100814.41;;;24.68;46.60
45285;BME280;31026;43.780;25.948;2023-09-19T14:48:04;100831.00;;;24.65;46.56
45285;BME280;31026;43.780;25.948;2023-09-19T14:50:35;100821.69;;;24.59;46.62
45285;BME280;31026;43.780;25.948;2023-09-19T14:53:03;100817.66;;;24.55;46.45
45285;BME280;31026;43.780;25.948;2023-09-19T14:55:36;100804.13;;;24.64;46.42
45285;BME280;31026;43.780;25.948;2023-09-19T14:58:06;100826.91;;;24.61;45.63
45285;BME280;31026;43.780;25.948;2023-09-19T15:00:35;100820.31;;;24.72;45.20
45285;BME280;31026;43.780;25.948;2023-09-19T15:03:04;100817.28;;;24.58;45.91
45285;BME280;31026;43.780;25.948;2023-09-19T15:05:35;100821.69;;;24.68;44.23
45285;BME280;31026;43.780;25.948;2023-09-19T15:08:04;100835.66;;;24.88;44.67
45285;BME280;31026;43.780;25.948;2023-09-19T15:10:32;100814.16;;;24.94;44.38
45285;BME280;31026;43.780;25.948;2023-09-19T15:13:01;100822.63;;;24.99;44.53
45285;BME280;31026;43.780;25.948;2023-09-19T15:15:31;100824.66;;;24.97;45.08
45285;BME280;31026;43.780;25.948;2023-09-19T15:17:59;100805.38;;;24.92;44.76
45285;BME280;31026;43.780;25.948;2023-09-19T15:20:27;100820.81;;;24.84;43.36
45285;BME280;31026;43.780;25.948;2023-09-19T15:22:58;100814.53;;;24.91;42.33
45285;BME280;31026;43.780;25.948;2023-09-19T15:25:27;100818.06;;;24.92;44.18
45285;BME280;31026;43.780;25.948;2023-09-19T15:27:55;100811.84;;;24.91;45.19
45285;BME280;31026;43.780;25.948;2023-09-19T15:30:26;100819.44;;;24.88;43.02
45285;BME280;31026;43.780;25.948;2023-09-19T15:32:54;100825.03;;;24.86;41.06
45285;BME280;31026;43.780;25.948;2023-09-19T15:35:22;100810.81;;;24.84;42.63
45285;BME280;31026;43.780;25.948;2023-09-19T15:37:52;100817.06;;;24.85;44.83
45285;BME280;31026;43.780;25.948;2023-09-19T15:40:24;100823.81;;;24.89;44.84
45285;BME280;31026;43.780;25.948;2023-09-19T15:42:54;100815.25;;;24.69;44.84
45285;BME280;31026;43.780;25.948;2023-09-19T15:45:23;100821.69;;;24.68;45.08
45285;BME280;31026;43.780;25.948;2023-09-19T15:47:51;100808.47;;;24.73;44.79
45285;BME280;31026;43.780;25.948;2023-09-19T15:50:20;100816.22;;;24.84;44.05
45285;BME280;31026;43.780;25.948;2023-09-19T15:52:51;100811.84;;;24.75;43.63
45285;BME280;31026;43.780;25.948;2023-09-19T15:55:24;100799.69;;;24.79;43.14
45285;BME280;31026;43.780;25.948;2023-09-19T15:57:52;100808.78;;;24.86;43.41
45285;BME280;31026;43.780;25.948;2023-09-19T16:00:20;100815.91;;;24.87;44.15
45285;BME280;31026;43.780;25.948;2023-09-19T16:02:49;100815.22;;;24.77;43.62
45285;BME280;31026;43.780;25.948;2023-09-19T16:05:18;100819.66;;;24.70;44.00
45285;BME280;31026;43.780;25.948;2023-09-19T16:07:46;100819.00;;;24.59;43.90
45285;BME280;31026;43.780;25.948;2023-09-19T16:10:14;100809.53;;;24.64;44.08
45285;BME280;31026;43.780;25.948;2023-09-19T16:12:45;100806.78;;;24.80;44.06
45285;BME280;31026;43.780;25.948;2023-09-19T16:15:14;100812.03;;;24.81;44.74
45285;BME280;31026;43.780;25.948;2023-09-19T16:17:43;100829.44;;;24.79;44.92
45285;BME280;31026;43.780;25.948;2023-09-19T16:20:12;100826.03;;;24.77;45.80
45285;BME280;31026;43.780;25.948;2023-09-19T16:22:41;100821.34;;;24.63;47.90
45285;BME280;31026;43.780;25.948;2023-09-19T16:25:13;100833.53;;;24.58;48.41
45285;BME280;31026;43.780;25.948;2023-09-19T16:27:41;100845.16;;;24.59;47.99
45285;BME280;31026;43.780;25.948;2023-09-19T16:30:12;100842.81;;;24.56;49.81
45285;BME280;31026;43.780;25.948;2023-09-19T16:32:41;100844.03;;;24.53;49.86
45285;BME280;31026;43.780;25.948;2023-09-19T16:35:09;100847.88;;;24.51;50.73
45285;BME280;31026;43.780;25.948;2023-09-19T16:37:37;100833.84;;;24.47;51.96
45285;BME280;31026;43.780;25.948;2023-09-19T16:40:06;100826.59;;;24.39;53.09
45285;BME280;31026;43.780;25.948;2023-09-19T16:42:36;100832.50;;;24.27;54.38
45285;BME280;31026;43.780;25.948;2023-09-19T16:45:06;100831.66;;;24.26;53.59
45285;BME280;31026;43.780;25.948;2023-09-19T16:47:38;100837.88;;;24.43;52.40
45285;BME280;31026;43.780;25.948;2023-09-19T16:50:06;100844.84;;;24.54;53.34
45285;BME280;31026;43.780;25.948;2023-09-19T16:52:35;100850.44;;;24.52;54.09
45285;BME280;31026;43.780;25.948;2023-09-19T16:55:04;100849.88;;;24.49;54.06
45285;BME280;31026;43.780;25.948;2023-09-19T16:57:33;100854.44;;;24.48;53.59
45285;BME280;31026;43.780;25.948;2023-09-19T17:00:02;100853.63;;;24.48;53.72
45285;BME280;31026;43.780;25.948;2023-09-19T17:02:32;100838.09;;;24.33;53.66
45285;BME280;31026;43.780;25.948;2023-09-19T17:05:04;100858.16;;;24.31;53.62
45285;BME280;31026;43.780;25.948;2023-09-19T17:07:33;100851.09;;;24.38;53.50
45285;BME280;31026;43.780;25.948;2023-09-19T17:10:01;100862.22;;;24.35;53.98
45285;BME280;31026;43.780;25.948;2023-09-19T17:12:30;100848.88;;;24.41;53.84
45285;BME280;31026;43.780;25.948;2023-09-19T17:14:59;100860.19;;;24.45;54.37
45285;BME280;31026;43.780;25.948;2023-09-19T17:17:28;100858.50;;;24.44;54.21
45285;BME280;31026;43.780;25.948;2023-09-19T17:19:56;100860.88;;;24.39;54.58
45285;BME280;31026;43.780;25.948;2023-09-19T17:22:27;100839.25;;;24.39;54.79
45285;BME280;31026;43.780;25.948;2023-09-19T17:24:55;100844.50;;;24.32;54.91
45285;BME280;31026;43.780;25.948;2023-09-19T17:27:24;100853.13;;;24.28;55.00
45285;BME280;31026;43.780;25.948;2023-09-19T17:29:52;100850.41;;;24.36;54.94
45285;BME280;31026;43.780;25.948;2023-09-19T17:32:20;100853.94;;;24.36;54.85
45285;BME280;31026;43.780;25.948;2023-09-19T17:34:48;100854.47;;;24.32;54.83
45285;BME280;31026;43.780;25.948;2023-09-19T17:37:17;100853.94;;;24.36;54.76
45285;BME280;31026;43.780;25.948;2023-09-19T17:39:48;100850.06;;;24.39;54.56
45285;BME280;31026;43.780;25.948;2023-09-19T17:42:16;100864.75;;;24.36;54.85
45285;BME280;31026;43.780;25.948;2023-09-19T17:44:44;100855.47;;;24.39;54.63
45285;BME280;31026;43.780;25.948;2023-09-19T17:47:13;100874.38;;;24.39;54.96
45285;BME280;31026;43.780;25.948;2023-09-19T17:49:43;100865.59;;;24.37;54.85
45285;BME280;31026;43.780;25.948;2023-09-19T17:52:14;100872.88;;;24.28;55.04
45285;BME280;31026;43.780;25.948;2023-09-19T17:54:43;100867.63;;;24.35;55.08
45285;BME280;31026;43.780;25.948;2023-09-19T17:57:16;100883.50;;;24.38;55.08
45285;BME280;31026;43.780;25.948;2023-09-19T17:59:45;100862.56;;;24.40;55.24
45285;BME280;31026;43.780;25.948;2023-09-19T18:02:13;100859.88;;;24.32;55.52
45285;BME280;31026;43.780;25.948;2023-09-19T18:04:41;100858.69;;;24.26;55.36
45285;BME280;31026;43.780;25.948;2023-09-19T18:07:10;100867.81;;;24.33;55.08
45285;BME280;31026;43.780;25.948;2023-09-19T18:09:38;100882.84;;;24.36;55.44
45285;BME280;31026;43.780;25.948;2023-09-19T18:12:07;100884.34;;;24.38;55.03
45285;BME280;31026;43.780;25.948;2023-09-19T18:14:38;100875.41;;;24.30;55.00
45285;BME280;31026;43.780;25.948;2023-09-19T18:17:06;100882.16;;;24.26;54.71
45285;BME280;31026;43.780;25.948;2023-09-19T18:19:35;100895.31;;;24.20;55.01
45285;BME280;31026;43.780;25.948;2023-09-19T18:22:03;100881.50;;;24.24;54.91
45285;BME280;31026;43.780;25.948;2023-09-19T18:24:31;100879.09;;;24.37;54.03
45285;BME280;31026;43.780;25.948;2023-09-19T18:27:00;100875.06;;;24.41;54.05
45285;BME280;31026;43.780;25.948;2023-09-19T18:29:29;100873.53;;;24.47;53.90
45285;BME280;31026;43.780;25.948;2023-09-19T18:32:00;100874.75;;;24.52;53.62
45285;BME280;31026;43.780;25.948;2023-09-19T18:34:29;100866.63;;;24.44;54.63
45285;BME280;31026;43.780;25.948;2023-09-19T18:36:57;100877.94;;;24.31;55.79
45285;BME280;31026;43.780;25.948;2023-09-19T18:39:25;100867.28;;;24.46;55.09
45285;BME280;31026;43.780;25.948;2023-09-19T18:41:55;100891.47;;;24.39;55.51
45285;BME280;31026;43.780;25.948;2023-09-19T18:44:24;100883.50;;;24.46;54.62
45285;BME280;31026;43.780;25.948;2023-09-19T18:46:52;100887.06;;;24.47;54.96
45285;BME280;31026;43.780;25.948;2023-09-19T18:49:24;100892.31;;;24.48;55.18
45285;BME280;31026;43.780;25.948;2023-09-19T18:51:52;100882.84;;;24.36;55.17